Time;durP1;ratioP1;P1;durP2;ratioP2;P2;SDS_P1;SDS_P2;PMS_P1;PMS_P2;Temp;Humidity;BMP_temperature;BMP_pressure;BME280_temperature;BME280_humidity;BME280_pressure;Samples;Min_cycle;Max_cycle;Signal;HPM_P1;HPM_P2
2021/11/27 00:00:25;;;;;;;;;;;18.90;61.80;;;;;;5073756;28;20011;-54
2021/11/27 00:02:52;;;;;;;;;;;18.90;61.80;;;;;;5074060;28;19947;-56
2021/11/27 00:05:22;;;;;;;;;;;18.90;61.90;;;;;;5074249;28;19924;-57
2021/11/27 00:07:50;;;;;;;;;;;18.90;61.90;;;;;;5073671;28;19964;-52
2021/11/27 00:10:18;;;;;;;;;;;18.90;61.90;;;;;;5085771;28;19963;-58
2021/11/27 00:12:46;;;;;;;;;;;18.90;61.90;;;;;;5076264;28;19924;-59
2021/11/27 00:15:13;;;;;;;;;;;18.90;61.90;;;;;;5076173;28;20114;-52
2021/11/27 00:17:40;;;;;;;;;;;18.90;61.90;;;;;;5094090;28;20380;-55
2021/11/27 00:20:09;;;;;;;;;;;18.90;61.90;;;;;;5093732;28;19930;-51
2021/11/27 00:22:37;;;;;;;;;;;18.90;62.00;;;;;;5093550;28;19924;-57
2021/11/27 00:25:04;;;;;;;;;;;18.90;62.00;;;;;;5091427;28;20303;-55
2021/11/27 00:27:32;;;;;;;;;;;18.90;62.00;;;;;;5093998;28;20015;-50
2021/11/27 00:29:59;;;;;;;;;;;18.90;62.00;;;;;;5093630;28;19957;-58
2021/11/27 00:32:26;;;;;;;;;;;18.90;62.00;;;;;;5093979;28;19924;-51
2021/11/27 00:34:53;;;;;;;;;;;18.90;62.00;;;;;;5093943;28;19931;-56
2021/11/27 00:37:21;;;;;;;;;;;18.90;62.00;;;;;;5093905;28;19978;-58
2021/11/27 00:39:48;;;;;;;;;;;18.90;62.10;;;;;;5085508;28;19974;-50
2021/11/27 00:42:15;;;;;;;;;;;18.90;62.00;;;;;;5075118;28;20003;-55
2021/11/27 00:44:42;;;;;;;;;;;18.90;62.00;;;;;;5077484;28;19974;-58
2021/11/27 00:47:09;;;;;;;;;;;18.90;62.10;;;;;;5077221;28;19924;-51
2021/11/27 00:49:36;;;;;;;;;;;18.90;62.10;;;;;;5077967;28;19925;-52
2021/11/27 00:52:03;;;;;;;;;;;18.90;62.10;;;;;;5077150;28;19925;-51
2021/11/27 00:54:30;;;;;;;;;;;18.80;62.00;;;;;;5075707;28;19928;-56
2021/11/27 00:56:57;;;;;;;;;;;18.80;62.00;;;;;;5076862;28;19928;-51
2021/11/27 00:59:24;;;;;;;;;;;18.80;62.10;;;;;;5076993;28;19932;-49
2021/11/27 01:01:52;;;;;;;;;;;18.80;62.00;;;;;;5076991;28;20023;-50
2021/11/27 01:04:19;;;;;;;;;;;18.80;62.10;;;;;;5076913;28;19925;-58
2021/11/27 01:06:46;;;;;;;;;;;18.80;62.10;;;;;;5059159;28;19932;-57
2021/11/27 01:09:14;;;;;;;;;;;18.80;62.10;;;;;;5076701;28;19924;-56
2021/11/27 01:11:43;;;;;;;;;;;18.80;62.10;;;;;;5077419;28;19990;-57
2021/11/27 01:14:11;;;;;;;;;;;18.80;62.10;;;;;;5076579;28;19964;-55
2021/11/27 01:16:39;;;;;;;;;;;18.80;62.10;;;;;;5076973;28;19986;-58
2021/11/27 01:19:08;;;;;;;;;;;18.80;62.10;;;;;;5076932;28;19970;-57
2021/11/27 01:21:37;;;;;;;;;;;18.80;62.00;;;;;;5076876;28;19987;-58
2021/11/27 01:24:05;;;;;;;;;;;18.80;62.10;;;;;;5076337;28;19929;-52
2021/11/27 01:26:33;;;;;;;;;;;18.80;62.00;;;;;;5075561;28;19978;-58
2021/11/27 01:29:00;;;;;;;;;;;18.80;62.00;;;;;;5058778;28;20384;-53
2021/11/27 01:31:28;;;;;;;;;;;18.80;62.00;;;;;;5076649;28;19925;-58
2021/11/27 01:33:54;;;;;;;;;;;18.80;62.10;;;;;;5076688;28;20361;-53
2021/11/27 01:36:22;;;;;;;;;;;18.90;62.10;;;;;;5076654;28;20377;-50
2021/11/27 01:38:50;;;;;;;;;;;18.80;62.00;;;;;;5076875;28;20342;-57
2021/11/27 01:41:16;;;;;;;;;;;18.80;62.00;;;;;;5057410;28;20037;-53
2021/11/27 01:43:44;;;;;;;;;;;18.80;62.00;;;;;;5076382;28;20032;-59
2021/11/27 01:46:12;;;;;;;;;;;18.80;62.00;;;;;;5076123;28;20006;-58
2021/11/27 01:48:39;;;;;;;;;;;18.90;62.10;;;;;;5076400;28;19947;-53
2021/11/27 01:51:09;;;;;;;;;;;18.80;62.00;;;;;;5075992;28;19930;-56
2021/11/27 01:53:37;;;;;;;;;;;18.80;62.70;;;;;;5075277;28;19928;-53
2021/11/27 01:56:06;;;;;;;;;;;18.90;62.10;;;;;;5075150;28;19925;-58
2021/11/27 01:58:33;;;;;;;;;;;18.80;62.00;;;;;;5076263;28;19970;-58
2021/11/27 02:01:03;;;;;;;;;;;18.90;62.10;;;;;;5075862;28;19925;-55
2021/11/27 02:03:31;;;;;;;;;;;18.80;62.00;;;;;;5076172;28;20300;-58
2021/11/27 02:05:59;;;;;;;;;;;18.90;62.10;;;;;;5076092;28;19925;-49
2021/11/27 02:08:26;;;;;;;;;;;18.90;62.00;;;;;;5058353;28;19925;-58
2021/11/27 02:10:54;;;;;;;;;;;18.80;61.90;;;;;;5075131;28;20441;-54
2021/11/27 02:13:21;;;;;;;;;;;18.80;62.00;;;;;;5075621;28;19924;-57
2021/11/27 02:15:48;;;;;;;;;;;18.80;62.00;;;;;;5075776;28;19994;-52
2021/11/27 02:18:15;;;;;;;;;;;18.80;62.00;;;;;;5075545;28;19932;-56
2021/11/27 02:20:53;;;;;;;;;;;18.80;62.00;;;;;;5075501;28;20398;-53
2021/11/27 02:23:20;;;;;;;;;;;18.80;62.00;;;;;;5075351;28;19931;-54
2021/11/27 02:25:47;;;;;;;;;;;18.80;62.00;;;;;;5074512;28;20467;-52
2021/11/27 02:28:14;;;;;;;;;;;18.80;62.10;;;;;;5075362;28;19970;-57
2021/11/27 02:30:41;;;;;;;;;;;18.80;62.00;;;;;;5075240;28;19924;-58
2021/11/27 02:33:08;;;;;;;;;;;18.80;62.10;;;;;;5075280;28;19925;-54
2021/11/27 02:35:35;;;;;;;;;;;18.80;62.10;;;;;;5075197;28;20011;-56
2021/11/27 02:38:03;;;;;;;;;;;18.80;62.10;;;;;;5075459;28;19924;-55
2021/11/27 02:40:31;;;;;;;;;;;18.80;62.10;;;;;;5074012;28;20437;-55
2021/11/27 02:42:59;;;;;;;;;;;18.80;62.10;;;;;;5075372;28;19925;-59
2021/11/27 02:45:26;;;;;;;;;;;18.80;62.10;;;;;;5075179;28;19947;-53
2021/11/27 02:47:53;;;;;;;;;;;18.80;62.20;;;;;;5075251;28;19931;-56
2021/11/27 02:50:25;;;;;;;;;;;18.80;62.20;;;;;;5074841;28;19972;-58
2021/11/27 02:52:52;;;;;;;;;;;18.80;62.20;;;;;;5074969;28;19947;-59
2021/11/27 02:55:19;;;;;;;;;;;18.80;62.20;;;;;;5075112;28;19928;-52
2021/11/27 02:57:46;;;;;;;;;;;18.80;62.20;;;;;;5074432;28;19969;-50
2021/11/27 03:00:17;;;;;;;;;;;18.80;62.30;;;;;;5075018;28;20011;-58
2021/11/27 03:02:45;;;;;;;;;;;18.70;62.20;;;;;;5074955;28;20014;-53
2021/11/27 03:05:13;;;;;;;;;;;18.70;62.20;;;;;;5074866;28;20268;-57
2021/11/27 03:07:42;;;;;;;;;;;18.70;62.20;;;;;;5073873;28;20470;-53
2021/11/27 03:10:10;;;;;;;;;;;18.70;62.20;;;;;;5074436;28;20406;-51
2021/11/27 03:12:38;;;;;;;;;;;18.70;62.20;;;;;;5073879;28;20292;-58
2021/11/27 03:15:08;;;;;;;;;;;18.70;63.00;;;;;;5074298;28;19977;-53
2021/11/27 03:17:35;;;;;;;;;;;18.70;62.20;;;;;;5074395;28;19930;-58
2021/11/27 03:20:03;;;;;;;;;;;18.70;62.20;;;;;;5074331;28;19931;-57
2021/11/27 03:22:31;;;;;;;;;;;18.70;62.30;;;;;;5056484;28;19968;-58
2021/11/27 03:24:58;;;;;;;;;;;18.70;62.30;;;;;;5074550;28;19928;-60
2021/11/27 03:27:25;;;;;;;;;;;18.70;62.30;;;;;;5073402;28;19924;-50
2021/11/27 03:29:52;;;;;;;;;;;18.70;62.30;;;;;;5074045;28;19932;-58
2021/11/27 03:32:19;;;;;;;;;;;18.70;62.30;;;;;;5074095;28;19931;-52
2021/11/27 03:34:47;;;;;;;;;;;18.70;62.30;;;;;;5074390;28;20287;-52
2021/11/27 03:37:14;;;;;;;;;;;18.70;62.40;;;;;;5074030;28;19924;-59
2021/11/27 03:39:41;;;;;;;;;;;18.70;62.40;;;;;;5074340;28;19960;-56
2021/11/27 03:42:09;;;;;;;;;;;18.70;62.40;;;;;;5073232;28;20011;-58
2021/11/27 03:44:37;;;;;;;;;;;18.70;62.40;;;;;;5073809;28;20384;-59
2021/11/27 03:47:05;;;;;;;;;;;18.60;62.30;;;;;;5074211;28;20295;-59
2021/11/27 03:49:32;;;;;;;;;;;18.70;62.40;;;;;;5057386;28;20284;-56
2021/11/27 03:52:01;;;;;;;;;;;18.60;62.30;;;;;;5073778;28;19924;-56
2021/11/27 03:54:28;;;;;;;;;;;18.60;62.30;;;;;;5073635;28;19931;-57
2021/11/27 03:56:57;;;;;;;;;;;18.60;62.30;;;;;;5073378;28;19948;-59
2021/11/27 03:59:24;;;;;;;;;;;18.60;62.40;;;;;;5074065;28;19928;-51
2021/11/27 04:01:51;;;;;;;;;;;18.60;62.40;;;;;;5074066;28;20010;-52
2021/11/27 04:04:19;;;;;;;;;;;18.60;62.40;;;;;;5074044;28;19924;-55
2021/11/27 04:06:47;;;;;;;;;;;18.60;62.40;;;;;;5073991;28;19925;-60
2021/11/27 04:09:14;;;;;;;;;;;18.60;62.40;;;;;;5073682;28;19999;-53
2021/11/27 04:11:42;;;;;;;;;;;18.60;62.40;;;;;;5072723;28;19924;-59
2021/11/27 04:14:09;;;;;;;;;;;18.60;62.40;;;;;;5073558;28;19925;-50
2021/11/27 04:16:37;;;;;;;;;;;18.60;62.40;;;;;;5075070;28;19924;-55
2021/11/27 04:19:04;;;;;;;;;;;18.60;62.40;;;;;;5080245;28;19924;-58
2021/11/27 04:21:31;;;;;;;;;;;18.60;62.40;;;;;;5062829;28;19928;-56
2021/11/27 04:23:58;;;;;;;;;;;18.60;62.50;;;;;;5080355;28;20007;-57
2021/11/27 04:26:25;;;;;;;;;;;18.60;62.50;;;;;;5079363;28;20379;-55
2021/11/27 04:28:53;;;;;;;;;;;18.60;62.50;;;;;;5080275;28;20398;-55
2021/11/27 04:31:20;;;;;;;;;;;18.60;62.50;;;;;;5080365;28;19931;-58
2021/11/27 04:33:48;;;;;;;;;;;18.60;62.50;;;;;;5080139;28;19924;-55
2021/11/27 04:36:16;;;;;;;;;;;18.60;62.50;;;;;;5080113;28;19929;-52
2021/11/27 04:38:44;;;;;;;;;;;18.60;62.50;;;;;;5080088;28;19954;-56
2021/11/27 04:41:11;;;;;;;;;;;18.60;62.50;;;;;;5080083;28;19925;-57
2021/11/27 04:43:38;;;;;;;;;;;18.60;62.50;;;;;;5079283;28;19938;-56
2021/11/27 04:46:05;;;;;;;;;;;18.60;62.50;;;;;;5080025;28;19955;-58
2021/11/27 04:48:32;;;;;;;;;;;18.60;62.50;;;;;;5080840;28;20406;-58
2021/11/27 04:50:59;;;;;;;;;;;18.60;62.50;;;;;;5080201;28;19924;-57
2021/11/27 04:53:28;;;;;;;;;;;18.60;62.50;;;;;;5079758;28;19931;-58
2021/11/27 04:55:56;;;;;;;;;;;18.60;62.50;;;;;;5080228;28;19924;-58
2021/11/27 04:58:23;;;;;;;;;;;18.60;62.50;;;;;;5079266;28;20350;-58
2021/11/27 05:00:52;;;;;;;;;;;18.60;62.60;;;;;;5079880;28;19925;-58
2021/11/27 05:03:19;;;;;;;;;;;18.60;62.60;;;;;;5080167;28;19982;-58
2021/11/27 05:05:46;;;;;;;;;;;18.50;63.20;;;;;;5080143;28;19978;-56
2021/11/27 05:08:15;;;;;;;;;;;18.50;62.50;;;;;;5062432;28;19928;-58
2021/11/27 05:10:42;;;;;;;;;;;18.50;62.50;;;;;;5079728;28;19925;-57
2021/11/27 05:13:09;;;;;;;;;;;18.60;62.60;;;;;;5078666;28;19925;-58
2021/11/27 05:15:36;;;;;;;;;;;18.50;62.50;;;;;;5079642;28;20277;-58
2021/11/27 05:18:03;;;;;;;;;;;18.50;62.60;;;;;;5080053;28;20346;-57
2021/11/27 05:20:30;;;;;;;;;;;18.50;62.50;;;;;;5080023;28;20297;-56
2021/11/27 05:22:57;;;;;;;;;;;18.50;62.50;;;;;;5079505;28;19974;-59
2021/11/27 05:25:24;;;;;;;;;;;18.50;62.60;;;;;;5061932;28;19924;-55
2021/11/27 05:27:51;;;;;;;;;;;18.50;62.60;;;;;;5078257;28;19928;-59
2021/11/27 05:30:18;;;;;;;;;;;18.50;62.60;;;;;;5058280;28;19924;-59
2021/11/27 05:33:06;;;;;;;;;;;18.50;62.60;;;;;;5076725;28;19970;-47
2021/11/27 05:35:33;;;;;;;;;;;18.50;62.60;;;;;;5077578;28;19952;-58
2021/11/27 05:38:01;;;;;;;;;;;18.50;62.60;;;;;;5076633;28;20299;-56
2021/11/27 05:40:29;;;;;;;;;;;18.50;62.60;;;;;;5076277;28;19951;-53
2021/11/27 05:42:56;;;;;;;;;;;18.50;62.60;;;;;;5075793;28;19924;-59
2021/11/27 05:45:27;;;;;;;;;;;18.50;62.70;;;;;;5076409;28;20277;-55
2021/11/27 05:47:58;;;;;;;;;;;18.50;62.70;;;;;;5076177;28;19925;-53
2021/11/27 05:50:26;;;;;;;;;;;18.50;62.70;;;;;;5076029;28;19977;-55
2021/11/27 05:52:53;;;;;;;;;;;18.50;63.40;;;;;;5075873;28;19928;-58
2021/11/27 05:55:21;;;;;;;;;;;18.50;62.70;;;;;;5076314;28;19924;-54
2021/11/27 05:57:49;;;;;;;;;;;18.50;62.70;;;;;;5074907;28;20087;-52
2021/11/27 06:00:16;;;;;;;;;;;18.50;62.70;;;;;;5076208;28;20010;-58
2021/11/27 06:02:43;;;;;;;;;;;18.50;62.70;;;;;;5076210;28;20388;-56
2021/11/27 06:05:10;;;;;;;;;;;18.50;62.70;;;;;;5075850;28;19928;-59
2021/11/27 06:07:37;;;;;;;;;;;18.40;62.60;;;;;;5075818;28;19924;-54
2021/11/27 06:10:05;;;;;;;;;;;18.40;62.60;;;;;;5075701;28;19924;-59
2021/11/27 06:12:32;;;;;;;;;;;18.50;62.70;;;;;;5074780;28;20379;-51
2021/11/27 06:14:59;;;;;;;;;;;18.40;62.60;;;;;;5075387;28;19924;-56
2021/11/27 06:17:26;;;;;;;;;;;18.50;62.70;;;;;;5058222;28;19993;-53
2021/11/27 06:19:53;;;;;;;;;;;18.40;62.70;;;;;;5075554;28;19978;-55
2021/11/27 06:22:22;;;;;;;;;;;18.40;62.70;;;;;;5058027;28;19925;-56
2021/11/27 06:24:50;;;;;;;;;;;18.50;62.80;;;;;;5075449;28;19932;-58
2021/11/27 06:27:17;;;;;;;;;;;18.40;62.70;;;;;;5075408;28;19974;-54
2021/11/27 06:29:44;;;;;;;;;;;18.40;62.70;;;;;;5074465;28;19981;-54
2021/11/27 06:32:12;;;;;;;;;;;18.40;62.70;;;;;;5075520;28;19930;-57
2021/11/27 06:34:39;;;;;;;;;;;18.40;62.80;;;;;;5075216;28;19931;-58
2021/11/27 06:37:07;;;;;;;;;;;18.40;62.70;;;;;;5075215;28;19977;-49
2021/11/27 06:39:36;;;;;;;;;;;18.50;62.80;;;;;;5074830;28;19932;-54
2021/11/27 06:42:03;;;;;;;;;;;18.40;62.70;;;;;;5075398;28;19929;-57
2021/11/27 06:44:30;;;;;;;;;;;18.40;62.70;;;;;;5056450;28;19929;-54
2021/11/27 06:46:57;;;;;;;;;;;18.40;62.70;;;;;;5075304;28;19978;-58
2021/11/27 06:49:24;;;;;;;;;;;18.50;62.90;;;;;;5074929;28;20384;-58
2021/11/27 06:51:51;;;;;;;;;;;18.40;62.70;;;;;;5057092;28;19928;-54
2021/11/27 06:54:18;;;;;;;;;;;18.40;62.70;;;;;;5074678;28;20008;-57
2021/11/27 06:56:45;;;;;;;;;;;18.40;62.70;;;;;;5074615;28;19924;-56
2021/11/27 06:59:12;;;;;;;;;;;18.40;62.70;;;;;;5074522;28;19929;-53
2021/11/27 07:01:40;;;;;;;;;;;18.40;62.70;;;;;;5074943;28;19924;-56
2021/11/27 07:04:07;;;;;;;;;;;18.40;62.70;;;;;;5074637;28;19924;-59
2021/11/27 07:06:34;;;;;;;;;;;18.40;62.70;;;;;;5074877;28;20353;-53
2021/11/27 07:09:01;;;;;;;;;;;18.40;62.70;;;;;;5074542;28;19989;-53
2021/11/27 07:11:28;;;;;;;;;;;18.40;62.70;;;;;;5074773;28;20338;-59
2021/11/27 07:13:55;;;;;;;;;;;18.40;62.70;;;;;;5073748;28;19925;-53
2021/11/27 07:16:22;;;;;;;;;;;18.50;62.70;;;;;;5074341;28;19974;-56
2021/11/27 07:18:49;;;;;;;;;;;18.50;62.70;;;;;;5074379;28;19929;-52
2021/11/27 07:21:16;;;;;;;;;;;18.40;62.60;;;;;;5074328;28;19931;-54
2021/11/27 07:23:43;;;;;;;;;;;18.40;62.60;;;;;;5074094;28;19928;-53
2021/11/27 07:26:10;;;;;;;;;;;18.40;62.60;;;;;;5074268;28;19925;-59
2021/11/27 07:28:37;;;;;;;;;;;18.40;62.60;;;;;;5073111;28;19929;-56
2021/11/27 07:31:04;;;;;;;;;;;18.40;62.60;;;;;;5074392;28;19928;-57
2021/11/27 07:33:34;;;;;;;;;;;18.40;62.60;;;;;;5074396;28;19929;-58
2021/11/27 07:36:01;;;;;;;;;;;18.40;62.50;;;;;;5074077;28;19929;-59
2021/11/27 07:38:28;;;;;;;;;;;18.50;62.60;;;;;;5074343;28;19925;-58
2021/11/27 07:40:55;;;;;;;;;;;18.50;62.60;;;;;;5074327;28;19924;-57
2021/11/27 07:43:22;;;;;;;;;;;18.50;62.50;;;;;;5057268;28;19924;-55
2021/11/27 07:45:49;;;;;;;;;;;18.50;62.50;;;;;;5072998;28;19928;-56
2021/11/27 07:48:16;;;;;;;;;;;18.50;62.50;;;;;;5074241;28;19986;-59
2021/11/27 07:50:43;;;;;;;;;;;18.50;62.40;;;;;;5073794;28;19935;-51
2021/11/27 07:53:10;;;;;;;;;;;18.50;62.40;;;;;;5055622;28;19974;-54
2021/11/27 07:55:37;;;;;;;;;;;18.50;62.30;;;;;;5074152;28;20329;-53
2021/11/27 07:58:04;;;;;;;;;;;18.50;62.30;;;;;;5073673;28;19925;-57
2021/11/27 08:00:31;;;;;;;;;;;18.60;62.30;;;;;;5073038;28;19924;-52
2021/11/27 08:02:58;;;;;;;;;;;18.60;62.20;;;;;;5073703;28;20392;-55
2021/11/27 08:05:25;;;;;;;;;;;18.60;62.10;;;;;;5073686;28;20429;-58
2021/11/27 08:07:52;;;;;;;;;;;18.60;62.10;;;;;;5074025;28;19929;-53
2021/11/27 08:10:19;;;;;;;;;;;18.60;62.00;;;;;;5074298;28;20326;-55
2021/11/27 08:12:46;;;;;;;;;;;18.60;61.90;;;;;;5073583;28;19974;-55
2021/11/27 08:15:13;;;;;;;;;;;18.70;62.00;;;;;;5072773;28;19982;-58
2021/11/27 08:17:40;;;;;;;;;;;18.60;61.90;;;;;;5073589;28;19928;-53
2021/11/27 08:20:09;;;;;;;;;;;18.70;61.90;;;;;;5073883;28;20015;-52
2021/11/27 08:22:36;;;;;;;;;;;18.70;61.90;;;;;;5073356;28;19924;-56
2021/11/27 08:25:04;;;;;;;;;;;18.70;61.90;;;;;;5073521;28;20453;-57
2021/11/27 08:27:33;;;;;;;;;;;18.70;61.90;;;;;;5056971;28;20279;-56
2021/11/27 08:30:03;;;;;;;;;;;18.70;61.80;;;;;;5072374;28;19925;-58
2021/11/27 08:32:31;;;;;;;;;;;18.70;61.80;;;;;;5073416;28;19925;-58
2021/11/27 08:34:58;;;;;;;;;;;18.70;61.70;;;;;;5073712;28;19939;-58
2021/11/27 08:37:26;;;;;;;;;;;18.80;61.80;;;;;;5073395;28;19925;-57
2021/11/27 08:39:53;;;;;;;;;;;18.80;61.70;;;;;;5073387;28;19976;-58
2021/11/27 08:42:21;;;;;;;;;;;18.80;61.60;;;;;;5055714;28;19924;-57
2021/11/27 08:44:49;;;;;;;;;;;18.80;61.50;;;;;;5073014;28;19925;-57
2021/11/27 08:47:17;;;;;;;;;;;18.90;61.50;;;;;;5055829;28;19924;-58
2021/11/27 08:49:45;;;;;;;;;;;18.90;61.30;;;;;;5073580;28;19933;-57
2021/11/27 08:52:12;;;;;;;;;;;18.90;61.20;;;;;;5073176;28;19978;-58
2021/11/27 08:54:39;;;;;;;;;;;18.90;61.10;;;;;;5073043;28;20368;-51
2021/11/27 08:57:06;;;;;;;;;;;19.00;61.20;;;;;;5072975;28;19970;-57
2021/11/27 08:59:36;;;;;;;;;;;19.00;61.10;;;;;;5071925;28;19971;-59
2021/11/27 09:02:03;;;;;;;;;;;19.00;61.10;;;;;;5073180;28;19929;-50
2021/11/27 09:04:32;;;;;;;;;;;19.00;61.10;;;;;;5076495;28;20388;-53
2021/11/27 09:07:02;;;;;;;;;;;19.00;61.00;;;;;;5077086;28;19925;-58
2021/11/27 09:09:30;;;;;;;;;;;19.00;61.00;;;;;;5076813;28;19962;-58
2021/11/27 09:11:59;;;;;;;;;;;19.00;60.90;;;;;;5076946;28;19972;-55
2021/11/27 09:14:26;;;;;;;;;;;19.10;60.90;;;;;;5075511;28;19932;-50
2021/11/27 09:16:53;;;;;;;;;;;19.10;60.90;;;;;;5076337;28;19950;-52
2021/11/27 09:19:20;;;;;;;;;;;19.10;60.80;;;;;;5076664;28;19929;-50
2021/11/27 09:21:50;;;;;;;;;;;19.20;60.70;;;;;;5076312;28;19924;-58
2021/11/27 09:24:18;;;;;;;;;;;19.20;60.60;;;;;;5058963;28;19928;-58
2021/11/27 09:26:45;;;;;;;;;;;19.20;60.50;;;;;;5076363;28;19924;-58
2021/11/27 09:29:14;;;;;;;;;;;19.20;60.50;;;;;;5076447;28;20380;-56
2021/11/27 09:31:41;;;;;;;;;;;19.30;60.50;;;;;;5075648;28;19924;-59
2021/11/27 09:34:09;;;;;;;;;;;19.30;60.50;;;;;;5076338;28;19978;-56
2021/11/27 09:36:37;;;;;;;;;;;19.30;60.40;;;;;;5077241;28;19924;-58
2021/11/27 09:39:11;;;;;;;;;;;19.30;60.30;;;;;;5076296;28;20435;-48
2021/11/27 09:41:47;;;;;;;;;;;19.30;60.30;;;;;;5076055;28;20304;-54
2021/11/27 09:44:17;;;;;;;;;;;19.30;60.30;;;;;;5076400;28;20087;-53
2021/11/27 09:46:45;;;;;;;;;;;19.30;60.30;;;;;;5075548;28;20280;-59
2021/11/27 09:49:17;;;;;;;;;;;19.30;60.20;;;;;;5076414;28;20330;-56
2021/11/27 09:51:46;;;;;;;;;;;19.40;60.30;;;;;;5076391;28;19928;-58
2021/11/27 09:54:16;;;;;;;;;;;19.40;60.30;;;;;;5075840;28;19932;-59
2021/11/27 09:56:45;;;;;;;;;;;19.40;60.20;;;;;;5075816;28;19928;-58
2021/11/27 09:59:12;;;;;;;;;;;19.40;60.20;;;;;;5075941;28;19931;-55
2021/11/27 10:01:46;;;;;;;;;;;19.40;60.20;;;;;;5075371;28;19925;-54
2021/11/27 10:04:14;;;;;;;;;;;19.40;60.20;;;;;;5075883;28;19993;-58
2021/11/27 10:06:44;;;;;;;;;;;19.40;60.20;;;;;;5075682;28;19931;-55
2021/11/27 10:09:16;;;;;;;;;;;19.40;60.20;;;;;;5075685;28;19924;-55
2021/11/27 10:11:43;;;;;;;;;;;19.40;60.20;;;;;;5075600;28;20045;-58
2021/11/27 10:14:11;;;;;;;;;;;19.40;60.20;;;;;;5075393;28;20006;-59
2021/11/27 10:16:56;;;;;;;;;;;19.50;60.30;;;;;;5074462;28;20388;-58
2021/11/27 10:19:24;;;;;;;;;;;19.40;60.20;;;;;;5075862;28;19924;-56
2021/11/27 10:21:57;;;;;;;;;;;19.40;60.30;;;;;;5075514;28;20437;-56
2021/11/27 10:24:26;;;;;;;;;;;19.40;60.30;;;;;;5074983;28;19936;-53
2021/11/27 10:26:53;;;;;;;;;;;19.40;60.40;;;;;;5075424;28;19948;-57
2021/11/27 10:29:26;;;;;;;;;;;19.40;60.40;;;;;;5075276;28;20423;-53
2021/11/27 10:32:06;;;;;;;;;;;19.40;60.40;;;;;;5074084;28;19932;-57
2021/11/27 10:34:33;;;;;;;;;;;19.40;60.40;;;;;;5075562;28;19993;-57
2021/11/27 10:37:06;;;;;;;;;;;19.40;60.40;;;;;;5075101;28;20384;-53
2021/11/27 10:39:33;;;;;;;;;;;19.50;60.40;;;;;;5075107;28;20023;-54
2021/11/27 10:42:03;;;;;;;;;;;19.50;60.30;;;;;;5075246;28;19931;-51
2021/11/27 10:44:31;;;;;;;;;;;19.50;60.30;;;;;;5074915;28;19925;-59
2021/11/27 10:47:16;;;;;;;;;;;19.50;60.30;;;;;;5073807;28;19928;-56
2021/11/27 10:49:45;;;;;;;;;;;19.50;60.30;;;;;;5074897;28;19925;-53
2021/11/27 10:52:14;;;;;;;;;;;19.50;60.20;;;;;;5074709;28;19925;-59
2021/11/27 10:54:52;;;;;;;;;;;19.50;60.20;;;;;;5074467;28;20426;-51
2021/11/27 10:57:38;;;;;;;;;;;19.50;60.10;;;;;;5074499;28;20002;-54
2021/11/27 11:00:25;;;;;;;;;;;19.50;60.10;;;;;;5074748;28;19928;-54
2021/11/27 11:02:52;;;;;;;;;;;19.60;60.10;;;;;;5056135;28;19971;-57
2021/11/27 11:05:22;;;;;;;;;;;19.60;60.00;;;;;;5074627;28;19924;-59
2021/11/27 11:07:53;;;;;;;;;;;19.60;59.90;;;;;;5074508;28;19936;-57
2021/11/27 11:10:24;;;;;;;;;;;19.60;59.90;;;;;;5074547;28;19925;-53
2021/11/27 11:12:56;;;;;;;;;;;19.60;59.80;;;;;;5056771;28;19975;-54
2021/11/27 11:15:25;;;;;;;;;;;19.60;59.80;;;;;;5074430;28;20431;-47
2021/11/27 11:17:54;;;;;;;;;;;19.70;59.80;;;;;;5073342;28;19928;-51
2021/11/27 11:20:26;;;;;;;;;;;19.70;59.70;;;;;;5056603;28;19924;-54
2021/11/27 11:22:57;;;;;;;;;;;19.70;59.70;;;;;;5074361;28;20291;-51
2021/11/27 11:25:25;;;;;;;;;;;19.70;59.60;;;;;;5056528;28;19928;-58
2021/11/27 11:27:56;;;;;;;;;;;19.80;59.60;;;;;;5073649;28;19930;-59
2021/11/27 11:30:23;;;;;;;;;;;19.80;59.60;;;;;;5074155;28;19924;-58
2021/11/27 11:32:50;;;;;;;;;;;19.80;59.60;;;;;;5073150;28;19928;-56
2021/11/27 11:35:18;;;;;;;;;;;19.80;59.50;;;;;;5074400;28;19924;-54
2021/11/27 11:37:45;;;;;;;;;;;19.80;59.50;;;;;;5074049;28;19928;-58
2021/11/27 11:40:12;;;;;;;;;;;19.80;59.40;;;;;;5074265;28;20290;-52
2021/11/27 11:42:40;;;;;;;;;;;19.80;59.40;;;;;;5056571;28;20318;-59
2021/11/27 11:45:07;;;;;;;;;;;19.90;59.40;;;;;;5073806;28;19925;-51
2021/11/27 11:47:38;;;;;;;;;;;19.90;59.40;;;;;;5073712;28;20277;-53
2021/11/27 11:50:20;;;;;;;;;;;19.90;59.40;;;;;;5073721;28;20375;-59
2021/11/27 11:52:56;;;;;;;;;;;19.90;59.40;;;;;;5073521;28;19929;-53
2021/11/27 11:55:23;;;;;;;;;;;19.90;59.40;;;;;;5074189;28;19925;-51
2021/11/27 11:57:54;;;;;;;;;;;19.90;59.40;;;;;;5073682;28;19925;-57
2021/11/27 12:00:24;;;;;;;;;;;19.90;59.30;;;;;;5074173;28;19924;-56
2021/11/27 12:02:51;;;;;;;;;;;19.90;59.30;;;;;;5073208;28;19924;-59
2021/11/27 12:05:21;;;;;;;;;;;19.90;59.30;;;;;;5074067;28;20295;-57
2021/11/27 12:07:53;;;;;;;;;;;20.00;59.40;;;;;;5073718;28;19925;-54
2021/11/27 12:10:43;;;;;;;;;;;20.00;59.30;;;;;;5074824;28;19924;-52
2021/11/27 12:13:10;;;;;;;;;;;20.00;59.30;;;;;;5073459;28;20372;-52
2021/11/27 12:15:39;;;;;;;;;;;20.00;59.30;;;;;;5074460;28;20284;-58
2021/11/27 12:18:07;;;;;;;;;;;20.00;59.30;;;;;;5055557;28;20318;-57
2021/11/27 12:20:48;;;;;;;;;;;20.00;59.30;;;;;;5073614;28;19924;-53
2021/11/27 12:23:27;;;;;;;;;;;20.00;59.30;;;;;;5073386;28;19935;-57
2021/11/27 12:26:06;;;;;;;;;;;20.00;59.30;;;;;;5073557;28;20376;-54
2021/11/27 12:28:33;;;;;;;;;;;20.00;59.30;;;;;;5056054;28;19924;-58
2021/11/27 12:31:03;;;;;;;;;;;20.00;59.20;;;;;;5073462;28;19932;-58
2021/11/27 12:33:48;;;;;;;;;;;20.00;59.30;;;;;;5072734;28;20382;-55
2021/11/27 12:36:32;;;;;;;;;;;20.00;59.30;;;;;;5073485;28;20445;-58
2021/11/27 12:39:18;;;;;;;;;;;20.10;59.40;;;;;;5076178;28;19925;-53
2021/11/27 12:41:46;;;;;;;;;;;20.00;59.30;;;;;;5077393;28;19950;-57
2021/11/27 12:44:28;;;;;;;;;;;20.10;59.40;;;;;;5077599;28;19978;-58
2021/11/27 12:47:00;;;;;;;;;;;20.00;59.30;;;;;;5059570;28;19982;-56
2021/11/27 12:49:31;;;;;;;;;;;20.10;59.40;;;;;;5077591;28;20303;-57
2021/11/27 12:52:21;;;;;;;;;;;20.10;59.40;;;;;;5077280;28;19955;-59
2021/11/27 12:54:59;;;;;;;;;;;20.00;59.40;;;;;;5068016;28;19924;-53
2021/11/27 12:57:26;;;;;;;;;;;20.10;59.50;;;;;;5076972;28;20368;-54
2021/11/27 13:00:12;;;;;;;;;;;20.10;59.40;;;;;;5077068;28;19925;-58
2021/11/27 13:02:58;;;;;;;;;;;20.10;59.40;;;;;;5076160;28;19925;-55
2021/11/27 13:05:27;;;;;;;;;;;20.10;59.50;;;;;;5077238;28;19928;-57
2021/11/27 13:07:54;;;;;;;;;;;20.10;59.50;;;;;;5076905;28;19974;-56
2021/11/27 13:10:21;;;;;;;;;;;20.10;60.10;;;;;;5076886;28;19929;-55
2021/11/27 13:12:52;;;;;;;;;;;20.10;59.50;;;;;;5076774;28;19924;-58
2021/11/27 13:15:20;;;;;;;;;;;20.10;59.60;;;;;;5076741;28;20406;-52
2021/11/27 13:18:03;;;;;;;;;;;20.00;59.50;;;;;;5057825;28;19929;-59
2021/11/27 13:20:48;;;;;;;;;;;20.00;59.50;;;;;;5077020;28;19993;-55
2021/11/27 13:23:17;;;;;;;;;;;20.10;59.70;;;;;;5076743;28;19928;-56
2021/11/27 13:25:48;;;;;;;;;;;20.00;59.70;;;;;;5076898;28;19928;-59
2021/11/27 13:28:35;;;;;;;;;;;20.00;59.70;;;;;;5076600;28;19932;-53
2021/11/27 13:31:03;;;;;;;;;;;20.00;59.70;;;;;;5076560;28;19932;-55
2021/11/27 13:33:50;;;;;;;;;;;20.00;60.40;;;;;;5075463;28;19924;-56
2021/11/27 13:36:23;;;;;;;;;;;20.00;59.80;;;;;;5076689;28;19932;-58
2021/11/27 13:38:52;;;;;;;;;;;20.00;59.80;;;;;;5076381;28;19925;-54
2021/11/27 13:41:19;;;;;;;;;;;20.00;59.80;;;;;;5076334;28;19924;-56
2021/11/27 13:43:46;;;;;;;;;;;20.00;59.90;;;;;;5058450;28;19928;-57
2021/11/27 13:46:13;;;;;;;;;;;20.00;59.90;;;;;;5076574;28;20338;-54
2021/11/27 13:48:40;;;;;;;;;;;20.00;59.90;;;;;;5075592;28;19929;-57
2021/11/27 13:51:07;;;;;;;;;;;20.00;60.00;;;;;;5075230;28;19931;-58
2021/11/27 13:53:34;;;;;;;;;;;20.00;60.00;;;;;;5076162;28;19931;-54
2021/11/27 13:56:03;;;;;;;;;;;20.00;60.00;;;;;;5075900;28;19924;-55
2021/11/27 13:58:31;;;;;;;;;;;20.00;60.10;;;;;;5076075;28;19975;-57
2021/11/27 14:01:00;;;;;;;;;;;19.90;60.00;;;;;;5076296;28;20015;-54
2021/11/27 14:03:30;;;;;;;;;;;20.00;60.10;;;;;;5075590;28;19925;-52
2021/11/27 14:06:07;;;;;;;;;;;19.90;60.10;;;;;;5075906;28;19924;-59
2021/11/27 14:08:34;;;;;;;;;;;19.90;60.10;;;;;;5076200;28;20338;-57
2021/11/27 14:11:03;;;;;;;;;;;19.90;60.20;;;;;;5076110;28;19975;-56
2021/11/27 14:13:31;;;;;;;;;;;19.90;60.20;;;;;;5075566;28;19931;-59
2021/11/27 14:15:59;;;;;;;;;;;19.90;60.20;;;;;;5075716;28;20015;-58
2021/11/27 14:18:26;;;;;;;;;;;19.90;60.30;;;;;;5074497;28;19928;-57
2021/11/27 14:21:13;;;;;;;;;;;19.90;60.30;;;;;;5075937;28;19967;-52
2021/11/27 14:23:44;;;;;;;;;;;19.90;60.40;;;;;;5075722;28;19928;-58
2021/11/27 14:26:16;;;;;;;;;;;19.90;60.50;;;;;;5075530;28;19924;-55